createdAt,value
2022-12-26T00:01:07.486Z,74.11
2022-12-26T00:03:39.493Z,74.10
2022-12-26T00:06:17.905Z,74.12
2022-12-26T00:08:50.083Z,74.13
2022-12-26T00:11:25.693Z,74.02
2022-12-26T00:14:12.108Z,74.02
2022-12-26T00:16:45.712Z,73.94
2022-12-26T00:19:17.421Z,74.86
2022-12-26T00:21:49.147Z,74.92
2022-12-26T00:24:20.830Z,74.31
2022-12-26T00:26:52.508Z,75.14
2022-12-26T00:29:24.382Z,74.90
2022-12-26T00:31:57.080Z,75.28
2022-12-26T00:34:28.916Z,75.25
2022-12-26T00:37:00.586Z,75.27
2022-12-26T00:39:32.506Z,75.00
2022-12-26T00:42:04.259Z,74.97
2022-12-26T00:44:35.971Z,75.81
2022-12-26T00:47:07.741Z,75.47
2022-12-26T00:50:12.607Z,75.64
2022-12-26T00:52:31.224Z,75.87
2022-12-26T00:55:03.177Z,75.62
2022-12-26T00:57:34.860Z,75.76
2022-12-26T01:00:07.435Z,76.24
2022-12-26T01:02:40.204Z,75.84
2022-12-26T01:05:12.469Z,76.53
2022-12-26T01:08:21.145Z,75.95
2022-12-26T01:10:36.178Z,76.22
2022-12-26T01:13:08.518Z,75.46
2022-12-26T01:15:40.326Z,76.26
2022-12-26T01:18:11.999Z,76.08
2022-12-26T01:20:43.771Z,76.26
2022-12-26T01:23:16.554Z,76.33
2022-12-26T01:26:17.875Z,75.95
2022-12-26T01:28:39.977Z,76.21
2022-12-26T01:31:11.772Z,75.76
2022-12-26T01:33:43.602Z,76.01
2022-12-26T01:36:17.866Z,76.12
2022-12-26T01:38:49.547Z,75.51
2022-12-26T01:41:21.325Z,76.08
2022-12-26T01:44:00.669Z,75.87
2022-12-26T01:46:42.219Z,76.33
2022-12-26T01:49:32.110Z,76.17
2022-12-26T01:52:12.308Z,76.90
2022-12-26T01:54:49.179Z,77.03
2022-12-26T01:57:31.245Z,76.69
2022-12-26T02:00:04.487Z,76.72
2022-12-26T02:03:04.182Z,76.57
2022-12-26T02:05:36.336Z,77.16
2022-12-26T02:08:13.123Z,76.99
2022-12-26T02:11:07.994Z,77.26
2022-12-26T02:13:40.736Z,76.63
2022-12-26T02:16:15.203Z,76.62
2022-12-26T02:18:47.099Z,76.59
2022-12-26T02:21:30.940Z,76.31
2022-12-26T02:24:33.397Z,76.89
2022-12-26T02:27:27.008Z,76.57
2022-12-26T02:30:03.504Z,76.49
2022-12-26T02:33:16.489Z,76.19
2022-12-26T02:36:43.931Z,75.66
2022-12-26T02:39:43.755Z,75.56
2022-12-26T02:42:35.642Z,76.35
2022-12-26T02:45:44.077Z,75.88
2022-12-26T02:48:36.170Z,75.08
2022-12-26T02:51:29.435Z,75.76
2022-12-26T02:54:43.603Z,75.89
2022-12-26T02:57:42.019Z,75.00
2022-12-26T03:00:36.722Z,75.27
2022-12-26T03:03:39.035Z,75.31
2022-12-26T03:06:37.084Z,75.51
2022-12-26T03:09:55.117Z,75.32
2022-12-26T03:13:02.384Z,75.53
2022-12-26T03:15:58.155Z,75.35
2022-12-26T03:18:56.930Z,75.99
2022-12-26T03:21:30.597Z,75.34
2022-12-26T03:24:02.368Z,75.27
2022-12-26T03:26:41.453Z,75.54
2022-12-26T03:29:40.282Z,75.22
2022-12-26T03:32:13.183Z,75.12
2022-12-26T03:34:45.205Z,75.09
2022-12-26T03:37:25.781Z,75.41
2022-12-26T03:40:56.474Z,74.76
2022-12-26T03:44:05.968Z,75.36
2022-12-26T03:47:03.878Z,74.60
2022-12-26T03:50:03.849Z,74.44
2022-12-26T03:52:58.728Z,74.89
2022-12-26T03:56:11.886Z,74.69
2022-12-26T03:59:20.043Z,74.90
2022-12-26T04:02:11.501Z,74.77
2022-12-26T04:05:04.854Z,74.21
2022-12-26T04:08:03.738Z,73.78
2022-12-26T04:11:14.942Z,73.50
2022-12-26T04:14:29.509Z,73.78
2022-12-26T04:17:32.432Z,73.62
2022-12-26T04:20:53.477Z,74.16
2022-12-26T04:24:04.536Z,73.89
2022-12-26T04:27:02.706Z,73.92
2022-12-26T04:29:52.967Z,73.30
2022-12-26T04:32:55.487Z,73.48
2022-12-26T04:35:51.836Z,73.38
2022-12-26T04:38:47.763Z,73.42
2022-12-26T04:41:39.843Z,73.74
2022-12-26T04:44:14.740Z,73.80
2022-12-26T04:46:48.382Z,73.51
2022-12-26T04:49:38.910Z,73.31
2022-12-26T04:52:13.540Z,73.73
2022-12-26T04:54:45.708Z,73.53
2022-12-26T04:57:17.440Z,73.76
2022-12-26T04:59:49.252Z,73.41
2022-12-26T05:02:39.910Z,73.28
2022-12-26T05:05:32.115Z,73.30
2022-12-26T05:08:23.971Z,73.11
2022-12-26T05:10:55.659Z,73.68
2022-12-26T05:13:27.371Z,73.32
2022-12-26T05:16:17.520Z,73.58
2022-12-26T05:19:07.800Z,73.38
2022-12-26T05:21:58.156Z,73.32
2022-12-26T05:24:58.114Z,73.62
2022-12-26T05:27:56.275Z,73.21
2022-12-26T05:30:28.560Z,73.63
2022-12-26T05:33:18.916Z,73.28
2022-12-26T05:35:50.689Z,73.53
2022-12-26T05:38:22.398Z,72.87
2022-12-26T05:40:54.123Z,73.54
2022-12-26T05:43:25.848Z,73.08
2022-12-26T05:45:58.930Z,73.27
2022-12-26T05:48:30.736Z,73.35
2022-12-26T05:51:04.010Z,72.97
2022-12-26T05:53:35.783Z,73.22
2022-12-26T05:56:12.291Z,72.71
2022-12-26T05:58:44.905Z,73.29
2022-12-26T06:01:19.498Z,73.41
2022-12-26T06:03:56.382Z,73.05
2022-12-26T06:06:28.650Z,73.12
2022-12-26T06:09:01.728Z,73.14
2022-12-26T06:11:33.456Z,72.64
2022-12-26T06:14:05.260Z,72.53
2022-12-26T06:16:37.382Z,72.51
2022-12-26T06:19:09.164Z,72.49
2022-12-26T06:21:40.983Z,71.89
2022-12-26T06:24:14.019Z,72.18
2022-12-26T06:26:45.751Z,72.15
2022-12-26T06:29:18.290Z,72.35
2022-12-26T06:31:50.088Z,72.00
2022-12-26T06:34:21.866Z,71.92
2022-12-26T06:36:56.690Z,71.68
2022-12-26T06:39:28.442Z,71.32
2022-12-26T06:42:00.183Z,71.65
2022-12-26T06:44:32.200Z,71.61
2022-12-26T06:47:03.962Z,70.92
2022-12-26T06:49:36.256Z,70.79
2022-12-26T06:52:08.583Z,70.29
2022-12-26T06:54:40.481Z,70.58
2022-12-26T06:57:14.951Z,70.68
2022-12-26T06:59:46.607Z,70.43
2022-12-26T07:02:18.410Z,70.67
2022-12-26T07:04:50.241Z,70.49
2022-12-26T07:07:21.985Z,70.55
2022-12-26T07:09:54.211Z,70.52
2022-12-26T07:12:26.011Z,69.92
2022-12-26T07:15:01.550Z,70.11
2022-12-26T07:17:33.740Z,70.19
2022-12-26T07:20:06.383Z,70.11
2022-12-26T07:22:38.640Z,69.70
2022-12-26T07:25:10.342Z,69.44
2022-12-26T07:27:42.892Z,69.53
2022-12-26T07:30:14.597Z,69.31
2022-12-26T07:32:46.413Z,69.40
2022-12-26T07:35:20.784Z,69.51
2022-12-26T07:37:52.541Z,69.52
2022-12-26T07:40:24.303Z,68.71
2022-12-26T07:42:56.023Z,68.82
2022-12-26T07:45:27.847Z,68.51
2022-12-26T07:48:01.110Z,68.61
2022-12-26T07:50:32.859Z,68.58
2022-12-26T07:53:04.972Z,68.31
2022-12-26T07:55:36.724Z,68.49
2022-12-26T07:58:08.786Z,68.74
2022-12-26T08:00:40.563Z,68.54
2022-12-26T08:03:13.218Z,68.51
2022-12-26T08:05:46.579Z,68.51
2022-12-26T08:08:18.306Z,68.05
2022-12-26T08:10:59.089Z,67.77
2022-12-26T08:13:31.704Z,67.96
2022-12-26T08:16:08.494Z,67.64
2022-12-26T08:18:40.839Z,67.21
2022-12-26T08:21:13.594Z,67.32
2022-12-26T08:23:48.615Z,66.80
2022-12-26T08:26:23.394Z,66.55
2022-12-26T08:28:56.081Z,66.40
2022-12-26T08:31:30.795Z,66.42
2022-12-26T08:34:02.560Z,66.12
2022-12-26T08:36:34.261Z,66.31
2022-12-26T08:39:06.102Z,66.59
2022-12-26T08:41:37.849Z,66.40
2022-12-26T08:44:27.483Z,66.35
2022-12-26T08:46:59.898Z,66.09
2022-12-26T08:49:33.656Z,65.62
2022-12-26T08:52:05.499Z,65.40
2022-12-26T08:54:37.228Z,65.25
2022-12-26T08:57:09.603Z,66.67
2022-12-26T08:59:41.803Z,64.83
2022-12-26T09:02:13.820Z,64.33
2022-12-26T09:04:45.727Z,64.51
2022-12-26T09:07:17.823Z,64.57
2022-12-26T09:09:49.535Z,64.94
2022-12-26T09:12:21.402Z,65.18
2022-12-26T09:14:53.417Z,65.19
2022-12-26T09:17:26.728Z,65.09
2022-12-26T09:19:58.532Z,65.14
2022-12-26T09:22:48.776Z,64.83
2022-12-26T09:25:24.184Z,64.90
2022-12-26T09:27:59.332Z,65.03
2022-12-26T09:30:31.382Z,65.37
2022-12-26T09:33:07.819Z,65.37
2022-12-26T09:35:40.979Z,65.36
2022-12-26T09:38:13.356Z,65.45
2022-12-26T09:41:05.291Z,65.54
2022-12-26T09:44:00.109Z,65.53
2022-12-26T09:47:30.923Z,65.49
2022-12-26T09:50:16.474Z,65.65
2022-12-26T09:53:04.201Z,65.49
2022-12-26T09:55:54.201Z,65.70
2022-12-26T09:58:56.866Z,65.77
2022-12-26T10:01:33.283Z,65.66
2022-12-26T10:04:09.884Z,65.47
2022-12-26T10:06:49.672Z,65.52
2022-12-26T10:09:59.211Z,65.36
2022-12-26T10:12:58.756Z,65.31
2022-12-26T10:15:50.662Z,65.56
2022-12-26T10:18:31.692Z,65.46
2022-12-26T10:21:13.580Z,65.47
2022-12-26T10:24:16.567Z,65.62
2022-12-26T10:26:59.936Z,65.62
2022-12-26T10:29:38.588Z,65.67
2022-12-26T10:32:27.838Z,65.54
2022-12-26T10:35:01.712Z,65.50
2022-12-26T10:37:39.357Z,65.60
2022-12-26T10:40:44.654Z,66.09
2022-12-26T10:43:45.771Z,65.71
2022-12-26T10:46:31.120Z,65.47
2022-12-26T10:49:06.018Z,65.40
2022-12-26T10:51:38.574Z,65.21
2022-12-26T10:54:18.008Z,65.17
2022-12-26T10:56:52.009Z,65.12
2022-12-26T10:59:35.383Z,65.00
2022-12-26T11:02:25.548Z,65.23
2022-12-26T11:05:33.328Z,64.85
2022-12-26T11:08:09.416Z,64.93
2022-12-26T11:10:48.039Z,64.91
2022-12-26T11:13:23.232Z,64.85
2022-12-26T11:15:55.064Z,65.17
2022-12-26T11:18:50.545Z,64.70
2022-12-26T11:21:23.959Z,64.58
2022-12-26T11:24:08.267Z,64.72
2022-12-26T11:26:40.118Z,64.93
2022-12-26T11:29:13.141Z,64.91
2022-12-26T11:31:54.200Z,64.62
2022-12-26T11:34:37.647Z,65.33
2022-12-26T11:37:29.052Z,65.97
2022-12-26T11:40:01.671Z,66.24
2022-12-26T11:42:33.491Z,66.61
2022-12-26T11:45:11.905Z,66.31
2022-12-26T11:47:46.005Z,65.54
2022-12-26T11:50:21.526Z,65.76
2022-12-26T11:53:05.731Z,64.61
2022-12-26T11:55:39.294Z,65.47
2022-12-26T11:58:22.835Z,65.67
2022-12-26T12:01:00.292Z,66.45
2022-12-26T12:03:34.696Z,65.71
2022-12-26T12:06:21.672Z,65.49
2022-12-26T12:09:03.842Z,65.29
2022-12-26T12:11:59.254Z,65.02
2022-12-26T12:14:34.147Z,65.53
2022-12-26T12:17:31.655Z,66.31
2022-12-26T12:20:15.215Z,66.11
2022-12-26T12:22:49.854Z,64.89
2022-12-26T12:25:21.449Z,64.50
2022-12-26T12:28:03.364Z,65.03
2022-12-26T12:31:00.917Z,65.05
2022-12-26T12:33:39.423Z,65.07
2022-12-26T12:36:32.723Z,65.54
2022-12-26T12:39:13.233Z,65.93
2022-12-26T12:42:06.617Z,66.01
2022-12-26T12:45:05.975Z,66.24
2022-12-26T12:47:51.750Z,66.43
2022-12-26T12:50:32.223Z,67.10
2022-12-26T12:53:43.035Z,67.46
2022-12-26T12:56:47.290Z,66.93
2022-12-26T12:59:43.721Z,67.51
2022-12-26T13:02:30.207Z,67.90
2022-12-26T13:05:39.583Z,68.15
2022-12-26T13:08:18.841Z,68.30
2022-12-26T13:11:01.500Z,68.57
2022-12-26T13:14:01.619Z,69.00
2022-12-26T13:16:43.551Z,68.70
2022-12-26T13:19:24.210Z,68.36
2022-12-26T13:22:02.598Z,69.43
2022-12-26T13:24:42.437Z,69.08
2022-12-26T13:27:22.138Z,68.60
2022-12-26T13:29:53.970Z,68.51
2022-12-26T13:32:28.360Z,68.42
2022-12-26T13:35:02.907Z,68.63
2022-12-26T13:37:37.747Z,69.04
2022-12-26T13:40:12.412Z,68.58
2022-12-26T13:43:08.737Z,69.06
2022-12-26T13:45:43.484Z,68.78
2022-12-26T13:48:15.259Z,69.08
2022-12-26T13:50:55.579Z,69.58
2022-12-26T13:53:34.017Z,69.62
2022-12-26T13:56:45.693Z,69.66
2022-12-26T13:59:32.831Z,69.06
2022-12-26T14:03:16.198Z,69.72
2022-12-26T14:05:40.685Z,68.62
2022-12-26T14:08:21.183Z,68.82
2022-12-26T14:11:25.510Z,68.89
2022-12-26T14:14:20.135Z,69.14
2022-12-26T14:16:59.804Z,69.21
2022-12-26T14:19:34.819Z,70.10
2022-12-26T14:22:23.158Z,69.37
2022-12-26T14:25:22.508Z,69.71
2022-12-26T14:28:10.472Z,69.71
2022-12-26T14:31:06.835Z,70.13
2022-12-26T14:33:40.596Z,70.10
2022-12-26T14:36:31.067Z,70.31
2022-12-26T14:39:44.042Z,70.62
2022-12-26T14:42:43.505Z,70.27
2022-12-26T14:45:30.307Z,70.45
2022-12-26T14:48:03.896Z,70.42
2022-12-26T14:50:43.476Z,70.48
2022-12-26T14:53:27.482Z,70.62
2022-12-26T14:56:01.280Z,71.72
2022-12-26T14:58:53.325Z,70.84
2022-12-26T15:01:25.074Z,70.74
2022-12-26T15:03:59.793Z,71.04
2022-12-26T15:06:37.472Z,70.80
2022-12-26T15:09:42.700Z,71.11
2022-12-26T15:12:20.172Z,70.90
2022-12-26T15:15:10.332Z,70.99
2022-12-26T15:18:06.067Z,71.20
2022-12-26T15:20:55.758Z,71.14
2022-12-26T15:23:58.380Z,71.27
2022-12-26T15:26:51.665Z,71.23
2022-12-26T15:29:38.608Z,71.13
2022-12-26T15:32:16.552Z,71.07
2022-12-26T15:35:12.889Z,71.17
2022-12-26T15:37:53.852Z,71.09
2022-12-26T15:40:31.716Z,71.05
2022-12-26T15:43:28.221Z,70.94
2022-12-26T15:46:10.108Z,71.33
2022-12-26T15:49:01.564Z,71.03
2022-12-26T15:51:55.819Z,70.95
2022-12-26T15:54:49.425Z,70.91
2022-12-26T15:58:02.086Z,70.91
2022-12-26T16:00:47.725Z,70.90
2022-12-26T16:03:42.943Z,70.91
2022-12-26T16:06:39.107Z,70.92
2022-12-26T16:09:32.271Z,70.90
2022-12-26T16:12:21.390Z,70.88
2022-12-26T16:15:11.715Z,70.97
2022-12-26T16:17:43.867Z,70.75
2022-12-26T16:20:50.741Z,70.98
2022-12-26T16:23:25.591Z,70.73
2022-12-26T16:26:00.621Z,70.76
2022-12-26T16:28:41.751Z,70.56
2022-12-26T16:31:23.090Z,70.71
2022-12-26T16:33:58.478Z,70.76
2022-12-26T16:36:35.690Z,70.82
2022-12-26T16:39:20.876Z,70.96
2022-12-26T16:42:07.320Z,71.04
2022-12-26T16:44:41.366Z,71.12
2022-12-26T16:47:15.322Z,71.04
2022-12-26T16:49:47.536Z,70.62
2022-12-26T16:52:46.370Z,71.07
2022-12-26T16:55:30.953Z,71.10
2022-12-26T16:58:12.890Z,71.23
2022-12-26T17:01:03.007Z,71.23
2022-12-26T17:03:49.685Z,71.24
2022-12-26T17:06:32.071Z,71.34
2022-12-26T17:09:10.510Z,71.24
2022-12-26T17:11:52.068Z,71.22
2022-12-26T17:14:28.456Z,71.52
2022-12-26T17:17:25.920Z,71.27
2022-12-26T17:20:22.658Z,71.34
2022-12-26T17:22:56.227Z,71.27
2022-12-26T17:25:33.810Z,71.57
2022-12-26T17:28:08.899Z,71.50
2022-12-26T17:30:46.543Z,71.41
2022-12-26T17:33:22.361Z,71.54
2022-12-26T17:39:20.152Z,71.62
2022-12-26T17:42:00.594Z,71.47
2022-12-26T17:44:41.357Z,71.61
2022-12-26T17:47:18.250Z,71.29
2022-12-26T17:49:53.742Z,71.41
2022-12-26T17:52:28.629Z,71.07
2022-12-26T17:55:02.514Z,71.30
2022-12-26T17:57:34.275Z,71.06
2022-12-26T18:00:14.969Z,71.15
2022-12-26T18:02:46.790Z,71.12
2022-12-26T18:05:19.972Z,71.19
2022-12-26T18:07:52.529Z,71.11
2022-12-26T18:10:29.189Z,71.38
2022-12-26T18:13:01.403Z,71.62
2022-12-26T18:15:33.194Z,71.39
2022-12-26T18:18:05.276Z,71.63
2022-12-26T18:20:37.069Z,71.60
2022-12-26T18:23:11.115Z,71.65
2022-12-26T18:25:49.193Z,71.71
2022-12-26T18:28:24.662Z,71.90
2022-12-26T18:30:58.020Z,71.99
2022-12-26T18:33:30.055Z,71.97
2022-12-26T18:36:07.377Z,72.01
2022-12-26T18:38:40.313Z,74.84
2022-12-26T18:41:21.113Z,72.34
2022-12-26T18:43:52.897Z,72.11
2022-12-26T18:46:27.280Z,72.90
2022-12-26T18:48:58.992Z,71.67
2022-12-26T18:51:30.917Z,71.82
2022-12-26T18:54:02.622Z,71.38
2022-12-26T18:56:34.416Z,71.58
2022-12-26T18:59:06.151Z,70.67
2022-12-26T19:01:38.028Z,70.48
2022-12-26T19:04:13.436Z,70.23
2022-12-26T19:06:45.192Z,70.68
2022-12-26T19:09:17.320Z,70.72
2022-12-26T19:11:49.127Z,71.17
2022-12-26T19:14:22.319Z,71.23
2022-12-26T19:16:54.255Z,71.42
2022-12-26T19:19:29.641Z,71.38
2022-12-26T19:22:01.529Z,71.56
2022-12-26T19:24:34.187Z,71.83
2022-12-26T19:27:05.941Z,71.82
2022-12-26T19:29:37.713Z,71.98
2022-12-26T19:32:09.555Z,72.49
2022-12-26T19:34:41.294Z,72.22
2022-12-26T19:37:14.319Z,72.19
2022-12-26T19:39:46.069Z,72.44
2022-12-26T19:42:18.194Z,72.44
2022-12-26T19:44:49.949Z,72.68
2022-12-26T19:47:25.199Z,72.91
2022-12-26T19:50:00.386Z,73.06
2022-12-26T19:52:36.620Z,73.05
2022-12-26T19:55:12.066Z,72.76
2022-12-26T19:58:17.002Z,72.79
2022-12-26T20:00:50.877Z,72.85
2022-12-26T20:03:22.640Z,72.62
2022-12-26T20:06:04.779Z,72.50
2022-12-26T20:08:36.703Z,72.28
2022-12-26T20:11:15.312Z,72.37
2022-12-26T20:13:58.959Z,72.37
2022-12-26T20:17:03.792Z,72.02
2022-12-26T20:19:24.297Z,72.08
2022-12-26T20:21:59.203Z,72.29
2022-12-26T20:24:31.396Z,72.29
2022-12-26T20:27:06.440Z,72.10
2022-12-26T20:29:41.402Z,72.11
2022-12-26T20:32:21.948Z,72.16
2022-12-26T20:34:57.062Z,72.06
2022-12-26T20:37:32.219Z,72.28
2022-12-26T20:40:07.647Z,72.30
2022-12-26T20:42:39.412Z,72.50
2022-12-26T20:45:15.304Z,74.09
2022-12-26T20:47:47.690Z,74.07
2022-12-26T20:50:25.767Z,74.17
2022-12-26T20:53:02.437Z,74.28
2022-12-26T20:55:42.584Z,75.02
2022-12-26T20:58:14.320Z,74.84
2022-12-26T21:00:55.568Z,75.42
2022-12-26T21:03:28.004Z,75.48
2022-12-26T21:06:18.819Z,75.61
2022-12-26T21:08:52.248Z,76.28
2022-12-26T21:11:28.117Z,76.51
2022-12-26T21:14:05.383Z,75.71
2022-12-26T21:16:45.602Z,76.18
2022-12-26T21:19:18.389Z,76.38
2022-12-26T21:21:53.034Z,76.35
2022-12-26T21:24:30.295Z,76.71
2022-12-26T21:27:15.061Z,76.40
2022-12-26T21:29:47.074Z,76.42
2022-12-26T21:32:19.034Z,76.46
2022-12-26T21:34:50.853Z,76.42
2022-12-26T21:37:41.301Z,76.64
2022-12-26T21:40:13.505Z,76.99
2022-12-26T21:42:45.813Z,76.52
2022-12-26T21:45:18.549Z,76.16
2022-12-26T21:47:50.459Z,76.36
2022-12-26T21:50:22.454Z,76.66
2022-12-26T21:52:55.678Z,76.85
2022-12-26T21:55:38.104Z,76.41
2022-12-26T21:58:10.923Z,76.44
2022-12-26T22:00:43.361Z,76.42
2022-12-26T22:03:33.625Z,76.06
2022-12-26T22:06:14.509Z,76.13
2022-12-26T22:08:46.211Z,76.50
2022-12-26T22:11:54.161Z,76.27
2022-12-26T22:14:25.940Z,76.42
2022-12-26T22:16:58.848Z,76.62
2022-12-26T22:19:33.162Z,76.35
2022-12-26T22:22:05.011Z,75.63
2022-12-26T22:24:36.818Z,75.46
2022-12-26T22:27:08.565Z,75.59
2022-12-26T22:29:40.348Z,75.16
2022-12-26T22:32:12.109Z,75.33
2022-12-26T22:34:43.818Z,75.71
2022-12-26T22:37:15.558Z,75.80
2022-12-26T22:39:47.384Z,75.36
2022-12-26T22:42:19.208Z,75.87
2022-12-26T22:44:53.025Z,76.41
2022-12-26T22:47:26.990Z,76.31
2022-12-26T22:49:59.306Z,76.02
2022-12-26T22:52:31.115Z,76.08
2022-12-26T22:55:02.908Z,75.84
2022-12-26T22:57:34.693Z,76.35
2022-12-26T23:00:11.450Z,76.56
2022-12-26T23:02:43.437Z,76.94
2022-12-26T23:05:15.660Z,76.56
2022-12-26T23:07:47.654Z,76.75
2022-12-26T23:10:23.037Z,76.39
2022-12-26T23:12:55.674Z,76.70
2022-12-26T23:15:30.357Z,76.78
2022-12-26T23:18:28.229Z,76.91
2022-12-26T23:21:25.860Z,76.60
2022-12-26T23:23:57.610Z,76.09
2022-12-26T23:26:29.388Z,75.78
2022-12-26T23:29:19.676Z,76.42
2022-12-26T23:31:51.756Z,76.28
2022-12-26T23:34:23.859Z,75.65
2022-12-26T23:36:55.657Z,75.97
2022-12-26T23:39:27.437Z,75.95
2022-12-26T23:41:59.172Z,75.72
2022-12-26T23:44:31.415Z,75.47
2022-12-26T23:47:03.192Z,75.25
2022-12-26T23:49:35.108Z,75.64
2022-12-26T23:52:06.843Z,76.53
2022-12-26T23:54:38.562Z,76.64
2022-12-26T23:57:10.302Z,76.28
2022-12-26T23:59:41.962Z,76.14
